Time;durP1;ratioP1;P1;durP2;ratioP2;P2;SDS_P1;SDS_P2;PMS_P1;PMS_P2;Temp;Humidity;BMP_temperature;BMP_pressure;BME280_temperature;BME280_humidity;BME280_pressure;Samples;Min_cycle;Max_cycle;Signal;HPM_P1;HPM_P2
2022/12/26 00:00:10;;;;;;;11.05;8.52;;;;;;;8.48;86.32;99465.78;345927;28;1094;-69
2022/12/26 00:00:23;;;;;;;13.00;8.32;;;;;;;8.51;86.51;99463.09;345736;28;1285;-69
2022/12/26 00:00:36;;;;;;;12.93;8.60;;;;;;;8.54;86.58;99457.84;345989;28;1086;-69
2022/12/26 00:00:53;;;;;;;12.82;9.23;;;;;;;8.58;86.35;99459.47;345324;28;1701;-69
2022/12/26 00:01:11;;;;;;;14.27;9.48;;;;;;;8.60;86.18;99462.88;344868;28;1862;-69
2022/12/26 00:01:25;;;;;;;13.18;8.80;;;;;;;8.61;85.94;99461.97;344096;28;1360;-69
2022/12/26 00:01:40;;;;;;;13.15;8.88;;;;;;;8.62;85.98;99468.84;344904;28;1210;-69
2022/12/26 00:01:54;;;;;;;13.32;8.80;;;;;;;8.66;85.75;99467.03;344401;28;901;-69
2022/12/26 00:02:06;;;;;;;12.07;8.52;;;;;;;8.68;85.79;99476.47;345070;28;1092;-69
2022/12/26 00:02:18;;;;;;;11.23;8.40;;;;;;;8.69;85.89;99466.94;344152;28;2322;-69
2022/12/26 00:02:30;;;;;;;11.15;8.20;;;;;;;8.70;85.69;99463.47;344563;28;1102;-68
2022/12/26 00:02:43;;;;;;;12.45;8.73;;;;;;;8.66;85.76;99472.22;343326;28;1583;-69
2022/12/26 00:02:56;;;;;;;12.38;9.02;;;;;;;8.60;86.05;99468.88;343181;28;1333;-69
2022/12/26 00:03:08;;;;;;;12.93;9.50;;;;;;;8.55;86.12;99475.09;344092;28;1083;-69
2022/12/26 00:03:20;;;;;;;12.50;9.88;;;;;;;8.55;86.63;99475.97;345050;28;1308;-69
2022/12/26 00:03:32;;;;;;;12.82;10.13;;;;;;;8.59;86.57;99468.94;344388;28;1225;-69
2022/12/26 00:03:44;;;;;;;13.45;10.25;;;;;;;8.60;86.71;99468.03;344964;28;962;-69
2022/12/26 00:03:56;;;;;;;13.73;10.25;;;;;;;8.62;86.61;99476.63;344362;28;1341;-69
2022/12/26 00:04:09;;;;;;;14.18;9.95;;;;;;;8.66;86.47;99483.41;344323;28;2273;-69
2022/12/26 00:04:41;;;;;;;13.82;9.48;;;;;;;8.69;86.38;99478.16;343014;28;1467;-69
2022/12/26 00:05:04;;;;;;;12.10;8.63;;;;;;;8.72;86.36;99472.88;344666;28;1055;-69
2022/12/26 00:05:16;;;;;;;11.40;8.60;;;;;;;8.74;86.28;99476.28;343278;28;1287;-69
2022/12/26 00:05:28;;;;;;;12.30;9.07;;;;;;;8.77;86.28;99471.03;344861;28;1162;-69
2022/12/26 00:05:40;;;;;;;11.98;9.10;;;;;;;8.78;86.25;99471.88;344817;28;1187;-69
2022/12/26 00:05:52;;;;;;;13.00;9.30;;;;;;;8.76;86.04;99473.66;344848;28;1040;-69
2022/12/26 00:06:14;;;;;;;13.35;9.45;;;;;;;8.73;86.08;99469.41;344748;28;1074;-69
2022/12/26 00:06:27;;;;;;;12.63;9.63;;;;;;;8.73;85.94;99472.00;344570;28;1294;-69
2022/12/26 00:06:39;;;;;;;13.38;9.48;;;;;;;8.75;86.06;99466.75;343248;28;1388;-69
2022/12/26 00:06:51;;;;;;;13.27;9.27;;;;;;;8.72;86.09;99470.28;343658;28;1387;-69
2022/12/26 00:07:03;;;;;;;12.25;9.05;;;;;;;8.74;85.91;99475.44;344358;28;2030;-69
2022/12/26 00:07:15;;;;;;;13.05;9.38;;;;;;;8.74;85.88;99468.50;344062;28;1517;-69
2022/12/26 00:07:27;;;;;;;12.48;9.57;;;;;;;8.75;86.00;99472.81;344542;28;1099;-69
2022/12/26 00:07:39;;;;;;;11.95;9.45;;;;;;;8.77;85.85;99476.22;345275;28;1471;-69
2022/12/26 00:07:51;;;;;;;12.10;9.35;;;;;;;8.78;85.83;99467.53;343970;28;1921;-68
2022/12/26 00:08:03;;;;;;;12.73;9.27;;;;;;;8.79;85.63;99469.25;344014;28;1547;-68
2022/12/26 00:08:15;;;;;;;12.38;8.95;;;;;;;8.82;85.45;99475.22;343618;28;1939;-69
2022/12/26 00:08:27;;;;;;;11.98;8.70;;;;;;;8.82;85.27;99472.66;345162;28;1902;-69
2022/12/26 00:08:40;;;;;;;11.52;8.57;;;;;;;8.75;85.44;99472.81;346175;28;1189;-69
2022/12/26 00:08:53;;;;;;;12.30;8.68;;;;;;;8.73;85.59;99474.59;346020;28;1211;-69
2022/12/26 00:09:06;;;;;;;12.48;8.65;;;;;;;8.72;85.69;99472.88;344250;28;1079;-69
2022/12/26 00:09:18;;;;;;;11.52;8.60;;;;;;;8.74;85.81;99471.09;343387;28;2261;-68
2022/12/26 00:09:32;;;;;;;11.50;8.77;;;;;;;8.73;85.58;99472.00;343553;28;1297;-69
2022/12/26 00:09:44;;;;;;;10.93;8.50;;;;;;;8.76;85.58;99474.50;343122;28;1328;-69
2022/12/26 00:09:56;;;;;;;11.45;8.52;;;;;;;8.76;85.80;99469.31;343861;28;1051;-69
2022/12/26 00:10:08;;;;;;;12.25;8.70;;;;;;;8.78;85.49;99477.91;342288;28;5406;-69
2022/12/26 00:10:20;;;;;;;13.35;9.00;;;;;;;8.79;85.73;99482.19;344259;28;1581;-69
2022/12/26 00:10:32;;;;;;;13.40;8.90;;;;;;;8.80;85.60;99477.88;344419;28;1637;-68
2022/12/26 00:10:44;;;;;;;12.32;8.80;;;;;;;8.79;85.71;99474.44;344351;28;4714;-69
2022/12/26 00:10:56;;;;;;;11.95;8.93;;;;;;;8.81;85.45;99471.78;344637;28;1121;-69
2022/12/26 00:11:08;;;;;;;12.32;9.20;;;;;;;8.81;85.57;99476.94;345272;28;1047;-71
2022/12/26 00:11:21;;;;;;;12.73;9.13;;;;;;;8.79;85.43;99469.25;346060;28;1301;-71
2022/12/26 00:11:34;;;;;;;12.80;9.27;;;;;;;8.78;85.33;99477.06;344392;28;2208;-71
2022/12/26 00:11:46;;;;;;;12.18;9.10;;;;;;;8.71;85.51;99475.50;346063;28;1274;-71
2022/12/26 00:11:58;;;;;;;13.13;9.15;;;;;;;8.68;85.55;99478.22;346155;28;4447;-71
2022/12/26 00:12:10;;;;;;;13.57;9.18;;;;;;;8.67;85.50;99473.91;346738;28;747;-69
2022/12/26 00:12:22;;;;;;;12.45;9.13;;;;;;;8.63;85.76;99478.31;346075;28;1251;-68
2022/12/26 00:12:34;;;;;;;11.73;9.07;;;;;;;8.65;85.76;99476.53;345369;28;2002;-68
2022/12/26 00:12:46;;;;;;;12.00;8.95;;;;;;;8.66;85.64;99478.25;346033;28;1148;-69
2022/12/26 00:12:58;;;;;;;14.68;9.35;;;;;;;8.68;85.87;99473.88;345906;28;1175;-69
2022/12/26 00:13:30;;;;;;;14.25;9.63;;;;;;;8.68;85.78;99476.47;343409;28;1445;-69
2022/12/26 00:14:10;;;;;;;13.30;9.38;;;;;;;8.71;85.59;99471.19;344007;28;1822;-68
2022/12/26 00:14:22;;;;;;;13.00;9.05;;;;;;;8.74;85.62;99471.09;344665;28;1902;-69
2022/12/26 00:14:34;;;;;;;12.43;8.55;;;;;;;8.76;85.49;99468.47;346224;28;1188;-68
2022/12/26 00:14:46;;;;;;;12.18;8.90;;;;;;;8.76;85.45;99469.31;344462;28;1858;-69
2022/12/26 00:14:58;;;;;;;12.30;8.52;;;;;;;8.78;85.36;99464.09;343630;28;1023;-68
2022/12/26 00:15:10;;;;;;;12.85;8.70;;;;;;;8.79;85.39;99469.25;344262;28;1166;-69
2022/12/26 00:15:22;;;;;;;13.98;9.35;;;;;;;8.78;85.35;99467.53;346605;28;1249;-69
2022/12/26 00:15:34;;;;;;;13.20;9.25;;;;;;;8.80;85.18;99464.91;344835;28;2067;-68
2022/12/26 00:15:46;;;;;;;12.23;8.63;;;;;;;8.80;85.35;99460.56;343931;28;1799;-69
2022/12/26 00:15:58;;;;;;;10.98;8.07;;;;;;;8.78;85.25;99459.75;344886;28;1094;-69
2022/12/26 00:16:13;;;;;;;11.10;8.07;;;;;;;8.79;85.46;99458.88;343528;28;2863;-69
2022/12/26 00:16:25;;;;;;;10.77;7.78;;;;;;;8.80;85.10;99470.09;343569;28;1413;-69
2022/12/26 00:16:40;;;;;;;11.00;7.88;;;;;;;8.82;85.23;99459.69;343540;28;1235;-68
2022/12/26 00:16:52;;;;;;;11.80;8.18;;;;;;;8.76;84.98;99464.13;343995;28;1982;-68
2022/12/26 00:17:04;;;;;;;13.10;8.70;;;;;;;8.75;84.88;99462.44;345916;28;1094;-69
2022/12/26 00:17:16;;;;;;;14.40;9.00;;;;;;;8.73;84.89;99461.66;345996;28;1408;-69
2022/12/26 00:17:29;;;;;;;14.05;9.07;;;;;;;8.71;84.77;99465.16;345997;28;1161;-68
2022/12/26 00:17:41;;;;;;;15.45;9.10;;;;;;;8.70;85.23;99458.28;346253;28;1131;-69
2022/12/26 00:17:53;;;;;;;16.02;8.95;;;;;;;8.70;85.26;99460.88;345197;28;1997;-69
2022/12/26 00:18:05;;;;;;;13.18;8.65;;;;;;;8.71;85.16;99449.59;343818;28;1555;-68
2022/12/26 00:18:17;;;;;;;11.00;8.05;;;;;;;8.72;85.13;99462.53;344575;28;1237;-69
2022/12/26 00:18:29;;;;;;;9.75;7.53;;;;;;;8.73;85.21;99456.47;344763;28;1368;-70
2022/12/26 00:18:41;;;;;;;9.57;7.30;;;;;;;8.75;85.02;99457.25;345221;28;725;-69
2022/12/26 00:18:53;;;;;;;9.20;7.20;;;;;;;8.77;85.20;99454.59;344861;28;1201;-69
2022/12/26 00:19:05;;;;;;;9.27;7.38;;;;;;;8.77;85.10;99455.47;343777;28;1868;-69
2022/12/26 00:19:17;;;;;;;11.02;7.95;;;;;;;8.75;85.09;99457.25;344301;28;1947;-70
2022/12/26 00:19:29;;;;;;;11.43;8.23;;;;;;;8.77;85.21;99458.06;343529;28;1167;-69
2022/12/26 00:19:42;;;;;;;12.52;8.30;;;;;;;8.77;85.10;99454.59;343417;28;1020;-70
2022/12/26 00:19:54;;;;;;;11.68;8.25;;;;;;;8.77;85.05;99455.47;343554;28;1147;-69
2022/12/26 00:20:06;;;;;;;11.68;7.90;;;;;;;8.79;85.09;99453.69;343088;28;1768;-69
2022/12/26 00:20:18;;;;;;;11.73;7.70;;;;;;;8.80;85.09;99460.56;344521;28;1334;-68
2022/12/26 00:20:30;;;;;;;11.63;7.65;;;;;;;8.82;85.23;99457.09;344409;28;1071;-68
2022/12/26 00:20:42;;;;;;;10.15;7.80;;;;;;;8.81;85.38;99456.22;343852;28;1298;-69
2022/12/26 00:20:54;;;;;;;10.00;7.85;;;;;;;8.83;85.22;99458.78;343657;28;1213;-69
2022/12/26 00:21:08;;;;;;;10.30;7.88;;;;;;;8.82;85.23;99454.50;342897;28;1975;-71
2022/12/26 00:21:22;;;;;;;12.63;7.95;;;;;;;8.80;85.09;99455.38;343017;28;1339;-69
2022/12/26 00:21:34;;;;;;;12.10;7.63;;;;;;;8.81;85.00;99451.03;344131;28;1155;-71
2022/12/26 00:21:46;;;;;;;10.23;7.70;;;;;;;8.80;84.90;99445.00;344829;28;1204;-71
2022/12/26 00:21:58;;;;;;;10.90;7.95;;;;;;;8.79;84.99;99452.81;344664;28;1066;-71
2022/12/26 00:22:10;;;;;;;11.43;8.10;;;;;;;8.76;84.67;99443.41;345289;28;2106;-72
2022/12/26 00:22:22;;;;;;;14.02;8.07;;;;;;;8.76;84.88;99442.56;345616;28;1734;-71
2022/12/26 00:22:34;;;;;;;14.43;8.07;;;;;;;8.75;84.74;99443.44;345060;28;1051;-71
2022/12/26 00:22:46;;;;;;;12.50;7.90;;;;;;;8.74;84.78;99447.78;346091;28;1098;-72
2022/12/26 00:23:01;;;;;;;10.98;7.65;;;;;;;8.74;84.79;99445.19;345371;28;2508;-73
2022/12/26 00:23:13;;;;;;;11.13;7.82;;;;;;;8.74;84.57;99445.19;345386;28;1722;-69
2022/12/26 00:23:25;;;;;;;10.90;7.78;;;;;;;8.75;84.82;99441.72;346077;28;1480;-69
2022/12/26 00:23:38;;;;;;;9.68;7.53;;;;;;;8.74;84.67;99445.19;345927;28;1065;-69
2022/12/26 00:23:50;;;;;;;12.80;7.95;;;;;;;8.73;84.68;99443.50;346242;28;1041;-69
2022/12/26 00:24:03;;;;;;;13.25;8.10;;;;;;;8.74;84.75;99450.38;346068;28;1311;-69
2022/12/26 00:24:15;;;;;;;13.48;8.52;;;;;;;8.70;84.78;99448.75;346222;28;1183;-69
2022/12/26 00:24:27;;;;;;;12.90;8.60;;;;;;;8.71;84.73;99445.28;344674;28;2079;-69
2022/12/26 00:24:39;;;;;;;13.05;8.70;;;;;;;8.70;84.58;99446.16;345850;28;1594;-70
2022/12/26 00:24:51;;;;;;;12.35;8.50;;;;;;;8.69;84.66;99452.25;345870;28;1311;-70
2022/12/26 00:25:03;;;;;;;13.95;8.52;;;;;;;8.70;84.52;99441.00;346159;28;1043;-69
2022/12/26 00:25:15;;;;;;;14.43;8.15;;;;;;;8.68;84.55;99440.19;346219;28;1015;-69
2022/12/26 00:25:28;;;;;;;12.95;8.15;;;;;;;8.68;84.51;99442.78;345783;28;1949;-69
2022/12/26 00:25:40;;;;;;;10.75;7.75;;;;;;;8.66;84.60;99441.97;345210;28;2066;-69
2022/12/26 00:25:52;;;;;;;11.02;7.65;;;;;;;8.68;84.50;99445.38;346385;28;1186;-69
2022/12/26 00:26:08;;;;;;;10.68;7.72;;;;;;;8.69;84.50;99447.06;345268;28;2061;-68
2022/12/26 00:26:22;;;;;;;9.90;7.32;;;;;;;8.69;84.36;99443.63;345355;28;1846;-69
2022/12/26 00:26:35;;;;;;;9.45;7.00;;;;;;;8.68;84.40;99445.38;345778;28;1067;-69
2022/12/26 00:26:46;;;;;;;9.48;7.07;;;;;;;8.67;84.30;99438.50;346180;28;1386;-69
2022/12/26 00:26:58;;;;;;;9.27;6.88;;;;;;;8.68;84.34;99440.19;346463;28;1009;-69
2022/12/26 00:27:10;;;;;;;11.20;7.20;;;;;;;8.68;84.20;99441.94;346026;28;1201;-69
2022/12/26 00:27:22;;;;;;;12.75;7.68;;;;;;;8.67;84.01;99432.44;346022;28;1344;-69
2022/12/26 00:27:34;;;;;;;12.25;7.53;;;;;;;8.65;84.29;99434.22;345650;28;2106;-69
2022/12/26 00:27:46;;;;;;;11.80;7.38;;;;;;;8.62;84.01;99442.94;345438;28;1881;-69
2022/12/26 00:27:58;;;;;;;11.23;7.72;;;;;;;8.61;84.20;99436.03;345976;28;1910;-69
2022/12/26 00:28:10;;;;;;;10.90;7.80;;;;;;;8.61;84.04;99438.63;345391;28;2032;-69
2022/12/26 00:28:24;;;;;;;12.48;7.85;;;;;;;8.59;84.28;99438.72;346087;28;1288;-69
2022/12/26 00:28:37;;;;;;;12.80;7.60;;;;;;;8.61;84.33;99449.00;345982;28;1981;-71
2022/12/26 00:28:49;;;;;;;11.77;7.32;;;;;;;8.58;84.23;99443.91;345893;28;1090;-71
2022/12/26 00:29:02;;;;;;;10.80;7.13;;;;;;;8.58;84.44;99457.72;346249;28;1070;-69
2022/12/26 00:29:14;;;;;;;10.85;7.38;;;;;;;8.59;84.40;99450.78;346412;28;1108;-69
2022/12/26 00:29:26;;;;;;;10.52;7.78;;;;;;;8.60;84.40;99448.16;345011;28;1243;-69
2022/12/26 00:29:38;;;;;;;11.82;8.35;;;;;;;8.61;84.69;99461.97;344396;28;1964;-69
2022/12/26 00:29:50;;;;;;;11.82;8.50;;;;;;;8.57;84.89;99468.13;345272;28;1811;-69
2022/12/26 00:30:03;;;;;;;11.77;8.43;;;;;;;8.45;85.10;99463.28;346330;28;1106;-69
2022/12/26 00:30:15;;;;;;;11.80;8.43;;;;;;;8.25;85.89;99467.22;346250;28;1635;-69
2022/12/26 00:30:27;;;;;;;12.95;8.68;;;;;;;8.17;86.43;99464.00;344860;28;1195;-70
2022/12/26 00:30:39;;;;;;;13.60;8.75;;;;;;;8.05;87.28;99464.28;344939;28;1187;-69
2022/12/26 00:30:51;;;;;;;12.68;8.95;;;;;;;8.08;87.58;99459.88;345347;28;1833;-69
2022/12/26 00:31:05;;;;;;;12.65;8.88;;;;;;;8.11;87.63;99458.94;346403;28;1011;-69
2022/12/26 00:31:20;;;;;;;12.75;8.70;;;;;;;8.13;87.57;99462.34;346185;28;1113;-69
2022/12/26 00:31:34;;;;;;;12.75;9.43;;;;;;;8.14;87.79;99461.47;346513;28;1106;-68
2022/12/26 00:31:46;;;;;;;13.05;9.57;;;;;;;8.06;87.97;99460.81;345556;28;1563;-69
2022/12/26 00:31:58;;;;;;;12.82;9.27;;;;;;;8.08;88.18;99459.03;345323;28;2027;-71
2022/12/26 00:32:10;;;;;;;13.25;9.30;;;;;;;8.05;88.23;99461.69;346003;28;1566;-71
2022/12/26 00:32:22;;;;;;;13.77;9.00;;;;;;;8.10;87.92;99462.44;346062;28;1318;-72
2022/12/26 00:32:34;;;;;;;13.20;8.55;;;;;;;8.13;88.09;99465.81;345534;28;2077;-72
2022/12/26 00:32:46;;;;;;;12.55;8.25;;;;;;;8.18;87.86;99470.84;345725;28;1624;-71
2022/12/26 00:32:58;;;;;;;11.45;7.80;;;;;;;8.20;87.81;99471.66;345604;28;1792;-69
2022/12/26 00:33:10;;;;;;;10.63;7.57;;;;;;;8.24;87.71;99472.44;346167;28;1130;-69
2022/12/26 00:33:22;;;;;;;10.63;7.55;;;;;;;8.26;87.37;99479.28;345905;28;1292;-69
2022/12/26 00:33:35;;;;;;;13.57;7.97;;;;;;;8.27;87.20;99470.63;345964;28;1032;-69
2022/12/26 00:33:47;;;;;;;12.60;8.15;;;;;;;8.29;86.97;99476.63;345627;28;1711;-71
2022/12/26 00:34:00;;;;;;;12.18;8.10;;;;;;;8.30;87.02;99480.88;346042;28;1000;-69
2022/12/26 00:34:12;;;;;;;11.50;8.25;;;;;;;8.34;87.08;99476.47;345544;28;1431;-68
2022/12/26 00:34:24;;;;;;;11.55;8.02;;;;;;;8.33;87.00;99480.81;346029;28;1244;-69
2022/12/26 00:34:36;;;;;;;11.63;7.85;;;;;;;8.35;87.10;99479.03;346087;28;1297;-69
2022/12/26 00:34:48;;;;;;;11.55;8.02;;;;;;;8.32;87.08;99479.09;345259;28;1695;-69
2022/12/26 00:35:00;;;;;;;11.98;9.30;;;;;;;8.33;86.83;99480.81;345650;28;1175;-69
2022/12/26 00:35:12;;;;;;;14.48;11.48;;;;;;;8.33;87.48;99485.13;345331;28;2026;-69
2022/12/26 00:35:24;;;;;;;15.18;12.13;;;;;;;8.30;87.55;99482.63;345486;28;1342;-69
2022/12/26 00:35:36;;;;;;;14.45;11.02;;;;;;;8.31;87.48;99481.72;344034;28;2032;-69
2022/12/26 00:35:48;;;;;;;13.80;10.15;;;;;;;8.27;87.54;99480.97;343803;28;1693;-70
2022/12/26 00:36:03;;;;;;;12.60;9.27;;;;;;;8.26;87.88;99476.69;344713;28;1067;-70
2022/12/26 00:36:24;;;;;;;12.05;9.70;;;;;;;8.28;87.85;99479.25;343148;28;2015;-70
2022/12/26 00:36:36;;;;;;;13.95;9.35;;;;;;;8.29;87.47;99471.44;343280;28;1326;-70
2022/12/26 00:36:48;;;;;;;14.85;9.20;;;;;;;8.31;87.69;99474.84;342632;28;1724;-70
2022/12/26 00:37:00;;;;;;;13.75;9.30;;;;;;;8.33;87.83;99474.78;342059;28;2270;-70
2022/12/26 00:37:11;;;;;;;12.90;9.75;;;;;;;8.37;87.68;99476.38;341397;28;1977;-70
2022/12/26 00:37:26;;;;;;;12.48;9.85;;;;;;;8.37;87.58;99474.66;344657;28;1536;-71
2022/12/26 00:37:38;;;;;;;12.38;9.65;;;;;;;8.39;87.45;99475.47;343372;28;1088;-69
2022/12/26 00:37:50;;;;;;;12.70;9.48;;;;;;;8.41;87.68;99478.06;344548;28;1203;-70
2022/12/26 00:38:02;;;;;;;13.85;9.82;;;;;;;8.42;87.42;99473.72;344478;28;1099;-71
2022/12/26 00:38:15;;;;;;;14.30;9.80;;;;;;;8.43;87.42;99475.41;343703;28;1316;-70
2022/12/26 00:38:27;;;;;;;12.30;8.95;;;;;;;8.48;87.12;99478.75;343114;28;1075;-69
2022/12/26 00:38:40;;;;;;;10.80;8.35;;;;;;;8.49;87.54;99480.44;343172;28;1369;-70
2022/12/26 00:38:53;;;;;;;10.40;8.30;;;;;;;8.52;87.19;99480.38;344943;28;1325;-70
2022/12/26 00:39:05;;;;;;;10.88;8.48;;;;;;;8.52;86.91;99481.22;346237;28;1315;-70
2022/12/26 00:39:17;;;;;;;12.05;9.00;;;;;;;8.52;86.82;99475.19;345501;28;1194;-70
2022/12/26 00:39:29;;;;;;;12.55;9.07;;;;;;;8.50;86.39;99471.78;344673;28;1207;-70
2022/12/26 00:39:40;;;;;;;11.68;8.60;;;;;;;8.46;86.62;99476.19;344721;28;1108;-69
2022/12/26 00:39:52;;;;;;;11.52;8.95;;;;;;;8.47;86.61;99480.50;344761;28;1225;-70
2022/12/26 00:40:06;;;;;;;11.88;9.20;;;;;;;8.48;86.50;99476.16;344792;28;1387;-70
2022/12/26 00:40:18;;;;;;;12.32;9.63;;;;;;;8.51;86.60;99473.47;345528;28;1051;-70
2022/12/26 00:40:30;;;;;;;13.52;9.98;;;;;;;8.50;86.60;99476.97;346187;28;1776;-70
2022/12/26 00:40:43;;;;;;;13.20;9.60;;;;;;;8.49;86.37;99477.84;347324;28;1715;-70
2022/12/26 00:41:14;;;;;;;12.10;8.95;;;;;;;8.50;86.28;99476.97;347262;28;1985;-71
2022/12/26 00:41:49;;;;;;;12.13;8.77;;;;;;;8.54;86.13;99478.59;343208;28;1384;-70
2022/12/26 00:43:14;;;;;;;9.85;7.45;;;;;;;8.64;85.81;99464.47;342107;28;1369;-70
2022/12/26 00:43:25;;;;;;;10.57;7.72;;;;;;;8.59;85.90;99461.16;346213;28;1684;-71
2022/12/26 00:43:37;;;;;;;11.80;8.35;;;;;;;8.57;85.76;99457.75;346310;28;1150;-71
2022/12/26 00:43:50;;;;;;;14.13;8.93;;;;;;;8.57;85.91;99455.16;346380;28;1058;-72
2022/12/26 00:44:02;;;;;;;14.15;9.05;;;;;;;8.59;85.59;99461.16;346385;28;1077;-70
2022/12/26 00:44:14;;;;;;;12.07;8.50;;;;;;;8.60;85.77;99457.69;344658;28;2004;-72
2022/12/26 00:44:26;;;;;;;14.85;8.30;;;;;;;8.62;85.77;99455.91;346131;28;1116;-70
2022/12/26 00:44:38;;;;;;;14.95;8.15;;;;;;;8.63;85.77;99452.41;346116;28;1067;-70
2022/12/26 00:44:50;;;;;;;13.70;7.85;;;;;;;8.64;85.75;99458.47;344786;28;1642;-70
2022/12/26 00:45:02;;;;;;;12.13;7.60;;;;;;;8.64;85.71;99467.06;346166;28;1073;-70
2022/12/26 00:45:14;;;;;;;11.43;7.35;;;;;;;8.65;85.76;99460.97;346197;28;1213;-70
2022/12/26 00:45:26;;;;;;;10.43;7.57;;;;;;;8.66;85.55;99462.69;345945;28;1082;-70
2022/12/26 00:45:38;;;;;;;9.50;7.53;;;;;;;8.67;85.31;99463.53;345479;28;1904;-70
2022/12/26 00:45:50;;;;;;;10.25;7.80;;;;;;;8.65;85.49;99471.34;345728;28;1075;-70
2022/12/26 00:46:02;;;;;;;11.23;7.97;;;;;;;8.66;85.33;99469.63;345917;28;1182;-70
2022/12/26 00:46:16;;;;;;;11.65;8.07;;;;;;;8.65;85.44;99466.16;346108;28;1320;-70
2022/12/26 00:46:28;;;;;;;11.50;8.05;;;;;;;8.67;85.37;99464.41;345162;28;1285;-70
2022/12/26 00:46:43;;;;;;;11.98;8.40;;;;;;;8.65;85.44;99468.75;343372;28;1276;-70
2022/12/26 00:46:55;;;;;;;12.63;8.27;;;;;;;8.64;85.56;99461.88;342759;28;1969;-72
2022/12/26 00:47:07;;;;;;;12.63;8.23;;;;;;;8.62;85.92;99461.09;344871;28;1134;-70
2022/12/26 00:47:19;;;;;;;12.50;8.30;;;;;;;8.63;85.82;99467.94;344675;28;1300;-70
2022/12/26 00:47:31;;;;;;;13.98;8.40;;;;;;;8.64;85.76;99469.66;346150;28;1190;-70
2022/12/26 00:47:43;;;;;;;15.25;8.45;;;;;;;8.65;85.74;99460.97;346194;28;1228;-70
2022/12/26 00:47:55;;;;;;;12.98;8.32;;;;;;;8.65;85.81;99460.97;344748;28;1678;-70
2022/12/26 00:48:07;;;;;;;11.70;8.27;;;;;;;8.67;86.03;99458.34;345766;28;1055;-70
2022/12/26 00:48:19;;;;;;;12.02;8.20;;;;;;;8.68;85.58;99460.91;346080;28;1764;-70
2022/12/26 00:48:31;;;;;;;12.27;8.25;;;;;;;8.67;85.45;99464.41;346573;28;1857;-70
2022/12/26 00:48:43;;;;;;;12.95;8.52;;;;;;;8.69;85.63;99462.63;346186;28;1066;-70
2022/12/26 00:48:56;;;;;;;12.40;8.90;;;;;;;8.69;85.56;99457.44;345615;28;1754;-70
2022/12/26 00:49:08;;;;;;;11.65;8.70;;;;;;;8.67;85.43;99463.53;345928;28;1193;-70
2022/12/26 00:49:20;;;;;;;11.48;8.55;;;;;;;8.61;85.36;99464.53;345436;28;1218;-70
2022/12/26 00:49:32;;;;;;;12.07;8.88;;;;;;;8.59;85.57;99466.34;344245;28;1549;-70
2022/12/26 00:50:04;;;;;;;12.63;8.35;;;;;;;8.58;85.50;99469.84;343950;28;1734;-71
2022/12/26 00:50:26;;;;;;;13.07;8.55;;;;;;;8.61;85.67;99459.38;344692;28;1153;-70
2022/12/26 00:50:45;;;;;;;12.07;8.40;;;;;;;8.65;85.52;99457.53;345273;28;1230;-70
2022/12/26 00:50:58;;;;;;;10.73;8.13;;;;;;;8.67;85.55;99455.75;346067;28;1195;-70
2022/12/26 00:51:10;;;;;;;11.05;7.97;;;;;;;8.69;85.47;99457.44;344664;28;2085;-73
2022/12/26 00:51:22;;;;;;;11.60;7.68;;;;;;;8.71;85.32;99454.78;346014;28;1304;-70
2022/12/26 00:51:34;;;;;;;11.48;7.30;;;;;;;8.74;85.22;99460.75;345425;28;2199;-70
2022/12/26 00:51:46;;;;;;;10.32;7.60;;;;;;;8.76;85.24;99458.94;345119;28;2288;-70
2022/12/26 00:51:58;;;;;;;10.15;7.78;;;;;;;8.76;85.46;99458.94;343925;28;1650;-70
2022/12/26 00:52:10;;;;;;;9.98;7.85;;;;;;;8.79;85.15;99464.06;342913;28;2112;-72
2022/12/26 00:52:22;;;;;;;10.15;7.88;;;;;;;8.80;85.29;99463.16;342988;28;1280;-71
2022/12/26 00:52:34;;;;;;;10.52;7.88;;;;;;;8.83;85.24;99458.78;343593;28;1343;-70
2022/12/26 00:52:46;;;;;;;11.15;7.97;;;;;;;8.83;84.89;99456.19;343425;28;1083;-70
2022/12/26 00:52:58;;;;;;;9.98;7.68;;;;;;;8.85;84.88;99457.00;343496;28;1022;-71
2022/12/26 00:53:10;;;;;;;9.95;7.47;;;;;;;8.86;84.94;99458.69;342773;28;1735;-71
2022/12/26 00:53:22;;;;;;;9.98;7.47;;;;;;;8.88;84.85;99462.09;342752;28;1286;-71
2022/12/26 00:53:35;;;;;;;10.18;7.60;;;;;;;8.88;85.14;99457.75;343097;28;1626;-70
2022/12/26 00:53:47;;;;;;;11.23;7.80;;;;;;;8.89;84.83;99456.00;346039;28;1590;-70
2022/12/26 00:53:59;;;;;;;12.35;8.15;;;;;;;8.88;84.66;99451.72;346008;28;1198;-70
2022/12/26 00:54:12;;;;;;;13.50;8.38;;;;;;;8.87;84.49;99457.78;345968;28;1033;-72
2022/12/26 00:54:24;;;;;;;13.75;8.35;;;;;;;8.87;84.44;99452.59;345058;28;1877;-70
2022/12/26 00:54:36;;;;;;;14.13;8.20;;;;;;;8.87;84.45;99460.38;347264;28;1652;-70
2022/12/26 00:54:48;;;;;;;13.23;8.18;;;;;;;8.87;84.39;99452.59;347407;28;1066;-70
2022/12/26 00:55:00;;;;;;;12.45;7.97;;;;;;;8.87;83.96;99455.19;347468;28;1062;-71
2022/12/26 00:55:13;;;;;;;12.38;8.02;;;;;;;8.88;84.01;99451.72;347514;28;1127;-70
2022/12/26 00:55:25;;;;;;;12.52;7.82;;;;;;;8.88;83.91;99454.31;346598;28;1642;-70
2022/12/26 00:55:37;;;;;;;11.20;7.90;;;;;;;8.90;84.06;99455.13;346863;28;1094;-70
2022/12/26 00:55:50;;;;;;;11.18;7.68;;;;;;;8.89;83.89;99448.22;346789;28;1728;-71
2022/12/26 00:56:03;;;;;;;9.57;7.00;;;;;;;8.89;84.07;99449.06;345529;28;1066;-70
2022/12/26 00:56:15;;;;;;;8.85;6.80;;;;;;;8.87;83.76;99450.84;345320;28;748;-70
2022/12/26 00:56:27;;;;;;;9.80;6.97;;;;;;;8.85;83.68;99449.22;345744;28;2024;-70
2022/12/26 00:56:39;;;;;;;11.32;7.20;;;;;;;8.84;83.77;99450.13;345478;28;1563;-70
2022/12/26 00:56:51;;;;;;;10.60;7.18;;;;;;;8.84;83.79;99450.13;345370;28;1415;-71
2022/12/26 00:57:03;;;;;;;9.40;6.70;;;;;;;8.84;83.89;99445.78;345429;28;2036;-71
2022/12/26 00:57:15;;;;;;;9.98;7.00;;;;;;;8.84;83.93;99455.31;345344;28;1362;-70
2022/12/26 00:57:28;;;;;;;10.52;6.93;;;;;;;8.83;83.79;99448.41;344646;28;957;-70
2022/12/26 00:57:40;;;;;;;10.90;7.30;;;;;;;8.83;83.76;99448.41;344996;28;1011;-70
2022/12/26 00:57:52;;;;;;;11.02;7.78;;;;;;;8.83;84.20;99448.41;344794;28;1059;-70
2022/12/26 00:58:04;;;;;;;10.63;7.82;;;;;;;8.74;83.75;99449.53;343614;28;1906;-70
2022/12/26 00:58:16;;;;;;;10.60;7.82;;;;;;;8.78;84.04;99451.13;344333;28;1258;-71
2022/12/26 00:58:28;;;;;;;10.18;7.60;;;;;;;8.77;83.93;99450.31;344737;28;1203;-70
2022/12/26 00:58:41;;;;;;;10.82;7.80;;;;;;;8.77;83.81;99445.13;344475;28;2086;-70
2022/12/26 00:58:53;;;;;;;10.38;7.60;;;;;;;8.78;83.85;99451.13;343886;28;1218;-70
2022/12/26 00:59:05;;;;;;;9.65;7.55;;;;;;;8.79;83.80;99445.03;342231;28;1070;-71
2022/12/26 00:59:17;;;;;;;10.25;7.38;;;;;;;8.79;84.01;99453.69;342127;28;1285;-70
2022/12/26 00:59:29;;;;;;;10.95;7.63;;;;;;;8.80;84.13;99450.19;342934;28;1633;-70
2022/12/26 00:59:41;;;;;;;10.18;7.60;;;;;;;8.82;84.06;99450.16;342083;28;1781;-70
2022/12/26 00:59:53;;;;;;;9.57;7.05;;;;;;;8.83;83.99;99445.81;343967;28;1110;-70
2022/12/26 01:00:06;;;;;;;8.68;6.60;;;;;;;8.84;83.99;99445.78;344739;28;1507;-70
2022/12/26 01:00:19;;;;;;;9.93;6.90;;;;;;;8.84;83.93;99453.56;344553;28;1347;-70
2022/12/26 01:00:31;;;;;;;10.55;7.38;;;;;;;8.85;84.13;99446.63;342821;28;1202;-70
2022/12/26 01:00:43;;;;;;;12.45;7.38;;;;;;;8.86;84.27;99453.50;340437;28;2271;-71
2022/12/26 01:01:11;;;;;;;11.85;7.20;;;;;;;8.85;84.01;99450.06;340818;29;1093;-70
2022/12/26 01:01:23;;;;;;;9.68;6.50;;;;;;;8.86;83.76;99448.34;344034;28;1186;-70
2022/12/26 01:01:35;;;;;;;10.13;6.50;;;;;;;8.86;83.83;99443.16;342323;28;1233;-70
2022/12/26 01:01:47;;;;;;;9.23;6.60;;;;;;;8.87;83.82;99450.84;340633;28;1839;-72
2022/12/26 01:02:00;;;;;;;9.13;6.70;;;;;;;8.86;83.63;99446.59;340073;29;1854;-70
2022/12/26 01:02:43;;;;;;;9.20;6.55;;;;;;;8.84;83.54;99442.34;340728;29;1018;-70
2022/12/26 01:02:56;;;;;;;8.82;6.65;;;;;;;8.85;83.59;99444.03;341284;28;1997;-71
2022/12/26 01:03:09;;;;;;;10.52;6.75;;;;;;;8.85;83.78;99442.28;343449;28;1667;-70
2022/12/26 01:03:21;;;;;;;10.65;6.75;;;;;;;8.85;83.63;99446.63;343420;28;1293;-71
2022/12/26 01:03:34;;;;;;;9.18;6.50;;;;;;;8.85;83.51;99444.88;343310;28;1361;-71
2022/12/26 01:03:47;;;;;;;9.02;6.85;;;;;;;8.80;83.49;99445.00;343233;28;1442;-70
2022/12/26 01:03:59;;;;;;;10.48;7.22;;;;;;;8.80;83.58;99444.16;344407;28;2782;-70
2022/12/26 01:04:11;;;;;;;10.10;7.10;;;;;;;8.77;83.64;99444.25;345172;28;1096;-70
2022/12/26 01:04:23;;;;;;;9.75;6.93;;;;;;;8.72;83.67;99446.97;345999;28;1275;-70
2022/12/26 01:04:35;;;;;;;10.10;7.18;;;;;;;8.71;83.62;99442.69;346131;28;1196;-70